Flight Track Log - Related Links

Times and Time Zones

All times are in EDT time to prevent confusion due to time zone crossing. See the SWA471 flight status page for this flight to view local times or setup timezone preferences in your user account.

Time Position Orientation Groundspeed Altitude Reporting Facility
EDT Latitude Longitude Course Direction KTS MPH feet Rate Location/Type
Mon 06:09:04 PM 39.1500 -76.6500 252° West 178 205 1,300  Level Potomac TRACON
Mon 06:10:04 PM 39.1333 -76.7167 252° West 253 291 3,200 2,200 Climbing Potomac TRACON
Mon 06:11:04 PM 39.1667 -76.7833 303° West 258 297 5,700 2,800 Climbing Potomac TRACON
Mon 06:12:04 PM 39.2000 -76.8667 297° West 266 306 8,800 2,650 Climbing Potomac TRACON
Mon 06:13:04 PM 39.2167 -76.9667 282° West 285 328 11,000 2,155 Climbing Potomac TRACON
Mon 06:15:30 PM 39.1400 -77.2161 248° West 301 346 16,200 1,855 Climbing Washington Center
Mon 06:16:31 PM 39.1011 -77.3167 244° Southwest 318 366 17,400 1,650 Climbing Washington Center
Mon 06:17:30 PM 39.0636 -77.4550 251° West 362 417 19,500 1,866 Climbing Washington Center
Mon 06:18:30 PM 39.0328 -77.5664 250° West 374 430 21,100 1,537 Climbing Washington Center
Mon 06:19:31 PM 38.9950 -77.7069 251° West 388 447 22,600 1,240 Climbing Washington Center
Mon 06:20:31 PM 38.9614 -77.8289 251° West 395 455 23,600 1,200 Climbing Washington Center
Mon 06:21:31 PM 38.9189 -77.9822 250° West 406 467 25,000 1,950 Climbing Washington Center
Mon 06:22:31 PM 38.8808 -78.1117 249° West 406 467 27,500 2,350 Climbing Washington Center
Mon 06:23:31 PM 38.8508 -78.2411 253° West 387 445 29,700 1,700 Climbing Washington Center
Mon 06:24:31 PM 38.8500 -78.3719 270° West 376 433 30,900 1,059 Climbing Washington Center
Mon 06:25:30 PM 38.8511 -78.5053 271° West 376 433 31,800 900 Climbing Washington Center
Mon 06:26:31 PM 38.8497 -78.6411 269° West 376 433 32,700 843 Climbing Washington Center
Mon 06:27:31 PM 38.8483 -78.7769 269° West 381 438 33,500 850 Climbing Washington Center
Mon 06:28:31 PM 38.8467 -78.9103 269° West 381 438 34,400 750 Climbing Washington Center
Mon 06:29:31 PM 38.8450 -79.0433 269° West 381 438 35,000 303 Climbing Washington Center
Mon 06:30:30 PM 38.8433 -79.1792 269° West 381 438 35,000  Level Washington Center
Mon 06:31:30 PM 38.8411 -79.3203 269° West 386 444 35,000  Level Washington Center
Mon 06:32:30 PM 38.8389 -79.4561 269° West 386 444 35,000  Level Washington Center
Mon 06:33:30 PM 38.8356 -79.5600 268° West 380 437 35,000  Level Washington Center
Mon 06:34:30 PM 38.8319 -79.7250 268° West 392 451 35,000  Level Washington Center
Mon 06:35:31 PM 38.8272 -79.8581 267° West 386 444 35,000  Level Washington Center
Mon 06:36:31 PM 38.8267 -79.9939 270° West 381 438 35,000  Level Washington Center
Mon 06:37:31 PM 38.8219 -80.1161 267° West 381 438 35,000  Level Washington Center
Mon 06:38:23 PM 38.8175 -80.2172 267° West 377 434 35,000 263 Level Indianapolis Center
Mon 06:39:25 PM 38.8128 -80.3542 268° West 385 443 35,500 339 Climbing Indianapolis Center
Mon 06:40:27 PM 38.8081 -80.5197 268° West 387 445 35,700 -435 Climbing Indianapolis Center
Mon 06:41:29 PM 38.8039 -80.6600 268° West 393 452 34,600 -823 Descending Indianapolis Center
Mon 06:42:31 PM 38.8000 -80.7997 268° West 393 452 34,000 -290 Descending Indianapolis Center
Mon 06:43:33 PM 38.7956 -80.9414 268° West 396 456 34,000  Level Indianapolis Center
Mon 06:44:35 PM 38.7900 -81.0847 267° West 400 460 34,000  Level Indianapolis Center
Mon 06:45:37 PM 38.7861 -81.2256 268° West 401 461 34,000  Level Indianapolis Center
Mon 06:46:39 PM 38.7803 -81.3958 268° West 401 461 34,000  Level Indianapolis Center
Mon 06:47:41 PM 38.7742 -81.5358 267° West 403 464 34,000 -48 Level Indianapolis Center
Mon 06:48:43 PM 38.7689 -81.6711 267° West 397 457 33,900 -532 Descending Indianapolis Center
Mon 06:49:45 PM 38.7636 -81.8131 267° West 402 463 32,900 -919 Descending Indianapolis Center
Mon 06:50:47 PM 38.7567 -81.9872 267° West 408 470 32,000 -435 Descending Indianapolis Center
Mon 06:51:49 PM 38.7508 -82.1317 267° West 406 467 32,000  Level Indianapolis Center
Mon 06:52:51 PM 38.7453 -82.2747 267° West 404 465 32,000  Level Indianapolis Center
Mon 06:53:53 PM 38.7403 -82.4175 267° West 403 464 32,000  Level Indianapolis Center
Mon 06:54:55 PM 38.7336 -82.5586 267° West 398 458 32,000  Level Indianapolis Center
Mon 06:55:57 PM 38.7289 -82.7011 268° West 400 460 32,000  Level Indianapolis Center
Mon 06:56:59 PM 38.7208 -82.8703 267° West 397 457 32,000  Level Indianapolis Center
Mon 06:58:01 PM 38.7142 -83.0117 267° West 397 457 32,000  Level Indianapolis Center
Mon 06:59:03 PM 38.7086 -83.1531 267° West 398 458 32,000  Level Indianapolis Center
Mon 07:00:05 PM 38.7008 -83.3025 266° West 396 456 32,000  Level Indianapolis Center
Mon 07:01:07 PM 38.6947 -83.4453 267° West 396 456 32,000  Level Indianapolis Center
Mon 07:02:08 PM 38.6875 -83.5878 266° West 398 458 32,000  Level Indianapolis Center
Mon 07:03:10 PM 38.6792 -83.7294 266° West 396 456 32,000  Level Indianapolis Center
Mon 07:04:12 PM 38.6728 -83.8717 267° West 396 456 32,000  Level Indianapolis Center
Mon 07:05:14 PM 38.6656 -84.0142 266° West 397 457 32,000  Level Indianapolis Center
Mon 07:06:16 PM 38.6581 -84.1561 266° West 397 457 32,000  Level Indianapolis Center
Mon 07:07:18 PM 38.6506 -84.2983 266° West 397 457 32,000  Level Indianapolis Center
Mon 07:08:19 PM 38.6583 -84.4606 274° West 387 445 32,000  Level Indianapolis Center
Mon 07:09:21 PM 38.6664 -84.5986 274° West 390 449 32,000  Level Indianapolis Center
Mon 07:10:23 PM 38.6747 -84.7381 274° West 391 450 32,000  Level Indianapolis Center
Mon 07:11:25 PM 38.6819 -84.8872 274° West 392 451 32,000  Level Indianapolis Center
Mon 07:12:27 PM 38.6897 -85.0253 274° West 390 449 32,000  Level Indianapolis Center
Mon 07:13:28 PM 38.6983 -85.1639 275° West 390 449 32,000  Level Indianapolis Center
Mon 07:14:30 PM 38.7047 -85.3022 273° West 389 448 32,000  Level Indianapolis Center
Mon 07:15:32 PM 38.7119 -85.4408 274° West 391 450 32,000  Level Indianapolis Center
Mon 07:16:34 PM 38.7181 -85.5806 273° West 393 452 32,000  Level Indianapolis Center
Mon 07:17:36 PM 38.7258 -85.7222 274° West 398 458 32,000  Level Indianapolis Center
Mon 07:18:38 PM 38.7333 -85.8925 273° West 399 459 32,000  Level Indianapolis Center
Mon 07:19:39 PM 38.7422 -86.0364 275° West 404 465 32,000  Level Indianapolis Center
Mon 07:20:41 PM 38.7469 -86.1786 272° West 401 461 32,000  Level Indianapolis Center
Mon 07:21:43 PM 38.7539 -86.3219 274° West 403 464 32,000  Level Indianapolis Center
Mon 07:22:45 PM 38.7600 -86.4639 273° West 402 463 32,000  Level Indianapolis Center
Mon 07:23:47 PM 38.7658 -86.6050 273° West 400 460 32,000  Level Indianapolis Center
Mon 07:24:48 PM 38.7711 -86.7450 273° West 395 455 32,000  Level Indianapolis Center
Mon 07:25:50 PM 38.7783 -86.9108 273° West 390 449 32,000  Level Indianapolis Center
Mon 07:26:52 PM 38.7828 -87.0481 272° West 388 447 32,000  Level Indianapolis Center
Mon 07:27:54 PM 38.7886 -87.1861 273° West 389 448 32,000  Level Indianapolis Center
Mon 07:28:56 PM 38.7925 -87.3228 272° West 387 445 32,000  Level Indianapolis Center
Mon 07:29:57 PM 38.7981 -87.4583 273° West 383 441 32,000  Level Indianapolis Center
Mon 07:30:59 PM 38.8022 -87.5964 272° West 388 447 32,000  Level Indianapolis Center
Mon 07:32:01 PM 38.8078 -87.7622 273° West 389 448 32,000  Level Indianapolis Center
Mon 07:33:02 PM 38.8111 -87.8989 272° West 386 444 32,000  Level Indianapolis Center
Mon 07:33:58 PM 38.8147 -88.0106 272° West 386 444 32,000  Level Kansas City Center
Mon 07:34:58 PM 38.8183 -88.1472 272° West 385 443 32,000  Level Kansas City Center
Mon 07:36:00 PM 38.8222 -88.2847 272° West 385 443 32,000  Level Kansas City Center
Mon 07:37:02 PM 38.8250 -88.4236 272° West 387 445 32,000  Level Kansas City Center
Mon 07:38:05 PM 38.8297 -88.5903 272° West 389 448 32,000  Level Kansas City Center
Mon 07:39:05 PM 38.8328 -88.7117 272° West 389 448 32,000  Level Kansas City Center
Mon 07:40:09 PM 38.8350 -88.8506 271° West 390 449 32,000  Level Kansas City Center
Mon 07:41:09 PM 38.8397 -89.0172 272° West 399 459 32,000  Level Kansas City Center
Mon 07:42:10 PM 38.8419 -89.1581 271° West 397 457 32,000  Level Kansas City Center
Mon 07:43:14 PM 38.8661 -89.3036 282° West 396 456 32,000  Level Kansas City Center
Mon 07:44:13 PM 38.9000 -89.4353 288° West 390 449 32,000 -390 Level Kansas City Center
Mon 07:45:17 PM 38.9378 -89.5775 289° West 392 451 31,200 -864 Descending Kansas City Center
Mon 07:46:18 PM 38.9711 -89.7064 288° West 384 442 30,200 -836 Descending Kansas City Center
Mon 07:47:19 PM 39.0044 -89.8367 288° West 385 443 29,500 -893 Descending Kansas City Center
Mon 07:48:19 PM 39.0414 -89.9781 289° West 388 447 28,400 -726 Descending Kansas City Center
Mon 07:49:23 PM 39.0747 -90.1078 288° West 391 450 28,000 -194 Descending Kansas City Center
Mon 07:50:23 PM 39.1097 -90.2439 288° West 400 460 28,000 -50 Level Kansas City Center
Mon 07:51:24 PM 39.1444 -90.3806 288° West 405 466 27,900 -590 Descending Kansas City Center
Mon 07:52:25 PM 39.1783 -90.5153 288° West 402 463 26,800 -905 Descending Kansas City Center
Mon 07:53:30 PM 39.2117 -90.6489 288° West 397 457 26,000 -384 Descending Kansas City Center
Mon 07:54:30 PM 39.2450 -90.7836 288° West 397 457 26,000  Level Kansas City Center
Mon 07:55:32 PM 39.2853 -90.9428 288° West 393 452 26,000  Level Kansas City Center
Mon 07:56:33 PM 39.3172 -91.0761 287° West 392 451 26,000  Level Kansas City Center
Mon 07:57:34 PM 39.3503 -91.2086 288° West 389 448 26,000  Level Kansas City Center
Mon 07:58:35 PM 39.3831 -91.3419 287° West 390 449 26,000  Level Kansas City Center
Mon 07:59:00 PM 39.3941 -91.3920 287° West  Level FlightAware Approximate
Mon 07:59:38 PM 39.4161 -91.4744 288° West 390 449 26,000  Level Kansas City Center
Mon 08:00:39 PM 39.4469 -91.6081 287° West 389 448 26,000  Level Kansas City Center
Mon 08:01:40 PM 39.4822 -91.7522 288° West 388 447 26,000  Level Kansas City Center
Mon 08:02:41 PM 39.5142 -91.8839 287° West 387 445 26,000  Level Kansas City Center
Mon 08:03:44 PM 39.5453 -92.0164 287° West 386 444 26,000  Level Kansas City Center
Mon 08:04:45 PM 39.5769 -92.1511 287° West 390 449 26,000  Level Kansas City Center
Mon 08:05:45 PM 39.6150 -92.3131 287° West 393 452 26,000  Level Kansas City Center
Mon 08:06:47 PM 39.6464 -92.4483 287° West 394 453 26,000  Level Kansas City Center
Mon 08:07:48 PM 39.6531 -92.5908 274° West 394 453 26,000  Level Kansas City Center
Mon 08:08:51 PM 39.6511 -92.7300 269° West 390 449 26,000  Level Kansas City Center
Mon 08:09:53 PM 39.6494 -92.8706 269° West 392 451 26,000  Level Kansas City Center
Mon 08:10:54 PM 39.6472 -93.0125 269° West 394 453 26,000 -595 Level Kansas City Center
Mon 08:11:54 PM 39.6464 -93.1550 270° West 396 456 24,800 -1,694 Descending Kansas City Center
Mon 08:12:58 PM 39.6428 -93.2856 268° West 375 432 22,500 -2,352 Descending Kansas City Center
Mon 08:13:59 PM 39.6397 -93.4383 269° West 361 415 19,900 -2,361 Descending Kansas City Center
Mon 08:15:00 PM 39.6378 -93.5608 269° West 349 402 17,700 -2,132 Descending Kansas City Center
Mon 08:16:00 PM 39.6358 -93.6753 269° West 324 373 15,600 -1,672 Descending Kansas City Center
Mon 08:17:02 PM 39.6097 -93.7847 253° West 284 327 14,300 -1,065 Descending Kansas City Center
Mon 08:18:04 PM 39.5861 -93.8789 252° West 284 327 13,400 -857 Descending Kansas City Center
Mon 08:19:08 PM 39.5586 -93.9831 251° West 273 314 12,500 -1,008 Descending Kansas City Center
Mon 08:20:09 PM 39.5353 -94.0697 251° West 267 307 11,300 -1,279 Descending Kansas City Center
Mon 08:21:10 PM 39.5181 -94.1539 255° West 254 292 9,900 -1,850 Descending Kansas City Center
Mon 08:22:09 PM 39.4978 -94.2503 255° West 250 288 7,600 -1,902 Descending Kansas City Center
Mon 08:23:13 PM 39.4786 -94.3378 254° West 262 302 6,000 -774 Descending Kansas City Center
Mon 08:24:13 PM 39.4578 -94.4372 255° West 257 296 6,000 -496 Level Kansas City Center
Mon 08:25:14 PM 39.4386 -94.5228 254° West 258 297 5,000 -1,073 Descending Kansas City Center
Mon 08:26:16 PM 39.4208 -94.6058 255° West 251 289 3,800 -768 Descending Kansas City Center
Mon 08:27:19 PM 39.3950 -94.6761 245° Southwest 190 219 3,400 -919 Descending Kansas City Center
Mon 08:28:20 PM 39.3567 -94.6869 192° South 147 169 1,900 -1,131 Descending Kansas City Center
Mon 08:29:21 PM 39.3125 -94.7000 193° South 147 169 1,100 -787 Descending Kansas City Center
Mon 08:31:00 PM 39.2976 -94.7139 270° West  Level Estimated
Mon 08:38:00 PM 39.2976 -94.7139 270° West  Level Estimated

Login

Don't have an account? Register now (free) for customized features, flight alerts, and more!